createdAt,value
2019-05-21T00:03:02.541Z,15.33
2019-05-21T00:08:07.794Z,17.23
2019-05-21T00:13:12.913Z,19.83
2019-05-21T00:18:18.125Z,17.97
2019-05-21T00:23:23.506Z,12.90
2019-05-21T00:28:39.451Z,16.93
2019-05-21T00:34:20.149Z,18.73
2019-05-21T00:40:01.198Z,25.47
2019-05-21T00:45:08.964Z,17.03
2019-05-21T00:50:17.170Z,16.87
2019-05-21T00:55:22.419Z,24.53
2019-05-21T01:00:27.624Z,26.17
2019-05-21T01:05:32.778Z,20.27
2019-05-21T01:10:38.259Z,21.37
2019-05-21T01:15:43.137Z,15.63
2019-05-21T01:20:48.530Z,18.57
2019-05-21T01:25:53.720Z,20.27
2019-05-21T01:30:58.824Z,27.43
2019-05-21T01:36:03.728Z,24.30
2019-05-21T01:41:08.633Z,23.83
2019-05-21T01:46:13.546Z,23.27
2019-05-21T01:51:18.393Z,29.37
2019-05-21T01:56:23.382Z,22.40
2019-05-21T02:01:28.588Z,24.47
2019-05-21T02:06:33.636Z,20.90
2019-05-21T02:11:38.782Z,22.50
2019-05-21T02:16:43.648Z,29.73
2019-05-21T02:21:48.601Z,22.90
2019-05-21T02:26:53.978Z,22.13
2019-05-21T02:31:59.203Z,18.77
2019-05-21T02:37:06.382Z,20.63
2019-05-21T02:42:10.863Z,28.93
2019-05-21T02:47:16.143Z,20.57
2019-05-21T02:52:21.140Z,17.67
2019-05-21T02:57:38.358Z,14.97
2019-05-21T03:02:43.687Z,18.10
2019-05-21T03:07:49.350Z,20.70
2019-05-21T03:12:54.280Z,14.40
2019-05-21T03:17:59.630Z,15.43
2019-05-21T03:23:04.781Z,23.00
2019-05-21T03:28:10.229Z,21.27
2019-05-21T03:33:15.139Z,17.37
2019-05-21T03:38:20.241Z,17.87
2019-05-21T03:43:25.816Z,24.87
2019-05-21T03:48:31.321Z,17.67
2019-05-21T03:53:36.473Z,17.03
2019-05-21T03:58:41.571Z,21.17
2019-05-21T04:03:46.926Z,23.00
2019-05-21T04:08:52.396Z,17.87
2019-05-21T04:13:57.668Z,19.07
2019-05-21T04:19:07.507Z,22.43
2019-05-21T04:24:13.111Z,22.73
2019-05-21T04:29:18.324Z,19.17
2019-05-21T04:34:23.652Z,24.17
2019-05-21T04:39:29.520Z,23.37
2019-05-21T04:44:34.750Z,17.30
2019-05-21T04:49:39.817Z,13.57
2019-05-21T04:54:44.991Z,18.70
2019-05-21T04:59:50.162Z,18.33
2019-05-21T05:04:55.655Z,17.33
2019-05-21T05:10:00.906Z,13.97
2019-05-21T05:15:06.919Z,19.43
2019-05-21T05:20:11.924Z,15.43
2019-05-21T05:25:16.832Z,15.13
2019-05-21T05:30:21.906Z,13.93
2019-05-21T05:35:26.950Z,15.90
2019-05-21T05:40:31.875Z,14.57
2019-05-21T05:45:37.059Z,14.77
2019-05-21T05:50:43.593Z,16.37
2019-05-21T05:55:48.617Z,12.87
2019-05-21T06:00:53.789Z,12.00
2019-05-21T06:05:59.150Z,14.90
2019-05-21T06:11:04.415Z,14.83
2019-05-21T06:16:09.741Z,19.57
2019-05-21T06:21:14.747Z,16.47
2019-05-21T06:26:19.769Z,16.87
2019-05-21T06:31:24.939Z,18.73
2019-05-21T06:36:29.998Z,14.33
2019-05-21T06:41:34.925Z,16.23
2019-05-21T06:46:40.375Z,20.60
2019-05-21T06:51:46.142Z,18.93
2019-05-21T06:56:51.206Z,12.77
2019-05-21T07:01:56.223Z,18.17
2019-05-21T07:07:01.942Z,12.70
2019-05-21T07:12:07.221Z,14.23
2019-05-21T07:17:12.178Z,14.57
2019-05-21T07:22:17.144Z,19.40
2019-05-21T07:27:22.114Z,13.67
2019-05-21T07:32:27.434Z,12.77
2019-05-21T07:37:32.705Z,13.63
2019-05-21T07:42:37.714Z,20.80
2019-05-21T07:47:42.670Z,14.47
2019-05-21T07:52:48.126Z,13.40
2019-05-21T07:57:53.577Z,13.47
2019-05-21T08:02:58.887Z,16.37
2019-05-21T08:08:04.291Z,13.77
2019-05-21T08:13:09.238Z,19.20
2019-05-21T08:18:14.547Z,12.27
2019-05-21T08:23:19.571Z,13.47
2019-05-21T08:28:24.505Z,15.50
2019-05-21T08:33:29.666Z,16.07
2019-05-21T08:38:34.635Z,16.87
2019-05-21T08:43:39.549Z,19.13
2019-05-21T08:48:44.822Z,16.00
2019-05-21T08:53:49.789Z,23.47
2019-05-21T08:58:55.055Z,23.30
2019-05-21T09:03:59.984Z,20.53
2019-05-21T09:09:06.666Z,18.33
2019-05-21T09:14:11.978Z,20.17
2019-05-21T09:19:17.274Z,25.37
2019-05-21T09:24:22.455Z,15.47
2019-05-21T09:29:27.713Z,16.93
2019-05-21T09:34:47.423Z,14.63
2019-05-21T09:39:40.416Z,16.97
2019-05-21T09:44:45.541Z,18.07
2019-05-21T09:49:50.651Z,11.57
2019-05-21T09:54:56.398Z,16.10
2019-05-21T10:00:07.161Z,19.77
2019-05-21T10:05:12.510Z,21.57
2019-05-21T10:10:17.607Z,19.33
2019-05-21T10:15:22.718Z,21.00
2019-05-21T10:20:27.973Z,21.83
2019-05-21T10:25:33.042Z,22.93
2019-05-21T10:30:38.184Z,15.67
2019-05-21T10:35:43.406Z,14.27
2019-05-21T10:40:48.674Z,13.90
2019-05-21T10:45:53.618Z,17.77
2019-05-21T10:50:58.821Z,18.17
2019-05-21T10:56:03.879Z,13.93
2019-05-21T11:01:15.541Z,15.93
2019-05-21T11:06:21.102Z,12.00
2019-05-21T11:11:26.055Z,13.23
2019-05-21T11:16:31.061Z,12.03
2019-05-21T11:21:36.161Z,16.67
2019-05-21T11:26:41.501Z,15.20
2019-05-21T11:31:56.327Z,11.23
2019-05-21T11:36:53.104Z,11.77
2019-05-21T11:41:58.871Z,8.53
2019-05-21T11:47:03.940Z,14.17
2019-05-21T11:52:09.205Z,12.93
2019-05-21T11:57:14.552Z,10.57
2019-05-21T12:02:20.098Z,9.97
2019-05-21T12:07:25.451Z,11.63
2019-05-21T12:12:31.138Z,10.83
2019-05-21T12:17:36.050Z,11.97
2019-05-21T12:22:41.376Z,11.63
2019-05-21T12:27:46.588Z,16.47
2019-05-21T12:32:51.874Z,12.07
2019-05-21T12:37:57.253Z,10.90
2019-05-21T12:43:02.787Z,10.53
2019-05-21T12:48:08.107Z,11.90
2019-05-21T12:53:16.561Z,12.00
2019-05-21T12:58:20.610Z,13.43
2019-05-21T13:03:25.617Z,15.73
2019-05-21T13:08:31.049Z,13.17
2019-05-21T13:13:36.420Z,9.83
2019-05-21T13:18:41.576Z,9.50
2019-05-21T13:23:46.551Z,9.87
2019-05-21T13:28:51.855Z,8.77
2019-05-21T13:33:56.993Z,10.40
2019-05-21T13:39:02.395Z,10.73
2019-05-21T13:44:08.142Z,13.03
2019-05-21T13:49:13.246Z,8.83
2019-05-21T13:54:18.443Z,7.03
2019-05-21T13:59:23.390Z,8.07
2019-05-21T14:04:28.598Z,12.43
2019-05-21T14:09:34.074Z,8.27
2019-05-21T14:14:39.387Z,5.23
2019-05-21T14:19:45.347Z,6.70
2019-05-21T14:24:50.731Z,5.77
2019-05-21T14:29:56.157Z,7.47
2019-05-21T14:35:02.350Z,7.00
2019-05-21T14:40:08.556Z,5.73
2019-05-21T14:45:13.718Z,7.47
2019-05-21T14:50:18.879Z,6.63
2019-05-21T14:55:24.360Z,6.90
2019-05-21T15:00:34.184Z,6.07
2019-05-21T15:05:39.453Z,9.03
2019-05-21T15:10:48.847Z,7.33
2019-05-21T15:15:51.767Z,8.43
2019-05-21T15:21:01.629Z,8.13
2019-05-21T15:26:06.586Z,8.67
2019-05-21T15:31:11.619Z,9.20
2019-05-21T15:36:16.821Z,10.03
2019-05-21T15:41:21.819Z,10.37
2019-05-21T15:46:27.079Z,11.23
2019-05-21T15:51:32.320Z,12.70
2019-05-21T15:56:37.658Z,12.37
2019-05-21T16:01:42.956Z,14.07
2019-05-21T16:06:48.447Z,16.03
2019-05-21T16:11:54.323Z,14.77
2019-05-21T16:16:59.585Z,14.23
2019-05-21T16:22:05.106Z,12.80
2019-05-21T16:27:10.306Z,10.07
2019-05-21T16:32:15.504Z,11.10
2019-05-21T16:37:20.899Z,8.47
2019-05-21T16:42:26.117Z,7.23
2019-05-21T16:47:44.461Z,6.03
2019-05-21T16:52:37.843Z,6.67
2019-05-21T16:57:43.051Z,11.07
2019-05-21T17:02:48.370Z,10.77
2019-05-21T17:07:53.622Z,6.10
2019-05-21T17:12:58.938Z,7.00
2019-05-21T17:18:03.964Z,5.37
2019-05-21T17:23:09.453Z,4.33
2019-05-21T17:28:15.055Z,5.60
2019-05-21T17:33:20.243Z,7.17
2019-05-21T17:38:25.424Z,6.00
2019-05-21T17:43:31.155Z,6.30
2019-05-21T17:48:36.210Z,6.07
2019-05-21T17:53:41.635Z,5.47
2019-05-21T17:58:47.024Z,5.00
2019-05-21T18:03:53.070Z,5.33
2019-05-21T18:08:58.730Z,6.37
2019-05-21T18:14:04.301Z,8.97
2019-05-21T18:19:09.416Z,10.53
2019-05-21T18:24:14.524Z,8.00
2019-05-21T18:29:19.071Z,7.97
2019-05-21T18:34:24.775Z,6.87
2019-05-21T18:39:30.801Z,8.80
2019-05-21T18:44:35.865Z,5.73
2019-05-21T18:49:41.911Z,3.13
2019-05-21T18:54:48.149Z,4.20
2019-05-21T18:59:53.380Z,2.73
2019-05-21T19:04:58.450Z,2.90
2019-05-21T19:10:04.573Z,4.50
2019-05-21T19:15:30.114Z,3.23
2019-05-21T19:20:35.696Z,3.63
2019-05-21T19:25:40.814Z,5.13
2019-05-21T19:30:46.293Z,4.00
2019-05-21T19:35:51.886Z,3.50
2019-05-21T19:40:57.541Z,3.03
2019-05-21T19:46:02.760Z,3.60
2019-05-21T19:51:08.435Z,2.87
2019-05-21T19:56:13.601Z,2.87
2019-05-21T20:01:19.388Z,4.00
2019-05-21T20:06:25.303Z,3.90
2019-05-21T20:11:30.881Z,4.03
2019-05-21T20:16:37.912Z,4.30
2019-05-21T20:21:43.807Z,3.30
2019-05-21T20:26:49.041Z,4.13
2019-05-21T20:31:54.902Z,3.50
2019-05-21T20:37:00.625Z,4.83
2019-05-21T20:42:06.450Z,5.07
2019-05-21T20:47:13.806Z,8.17
2019-05-21T20:52:19.235Z,6.43
2019-05-21T20:57:25.021Z,8.50
2019-05-21T21:02:31.292Z,8.47
2019-05-21T21:07:38.872Z,6.73
2019-05-21T21:12:44.805Z,7.20
2019-05-21T21:17:50.375Z,8.10
2019-05-21T21:22:55.437Z,8.20
2019-05-21T21:28:00.824Z,9.90
2019-05-21T21:33:07.216Z,9.30
2019-05-21T21:38:13.791Z,8.77
2019-05-21T21:43:19.353Z,9.17
2019-05-21T21:48:24.974Z,8.73
2019-05-21T21:53:30.526Z,9.43
2019-05-21T21:58:35.619Z,9.37
2019-05-21T22:03:44.254Z,7.87
2019-05-21T22:08:49.333Z,6.93
2019-05-21T22:13:55.021Z,5.93
2019-05-21T22:19:00.461Z,6.93
2019-05-21T22:24:06.750Z,5.67
2019-05-21T22:29:11.754Z,4.77
2019-05-21T22:34:17.099Z,6.73
2019-05-21T22:39:24.115Z,7.40
2019-05-21T22:44:29.578Z,7.47
2019-05-21T22:49:34.919Z,7.33
2019-05-21T22:54:39.835Z,10.37
2019-05-21T22:59:45.786Z,8.50
2019-05-21T23:04:51.856Z,7.30
2019-05-21T23:09:58.822Z,7.70
2019-05-21T23:15:04.765Z,7.03
2019-05-21T23:20:12.338Z,6.73
2019-05-21T23:25:19.623Z,7.07
2019-05-21T23:30:25.092Z,6.27
2019-05-21T23:35:30.020Z,6.40
2019-05-21T23:40:35.563Z,12.47
2019-05-21T23:45:40.955Z,9.23
2019-05-21T23:50:46.077Z,8.97
2019-05-21T23:55:51.045Z,9.00
